Sylvan Lake, Canada
Current Conditions -  °F | °C
As of 7:00 PM on Friday 19 Dec 2014 (Local Time) from CYQF Reporting Station
Overcast Overcast  
Wind Chill: -7°   Ceiling: 10000
Heat Index: -4°   Visibility: 15mi
Dew Point: -5°   Wind: 5mph
Humidity: 93%   Direction: 360°N
Pressure: 29.66"   Gusts: NA
Location:  52.31°N, 114.09°W
Report Text: CYQF 200200Z 36004KT 15SM OVC100 M04/M05 A2966 RMK AC8 SLP094
Loading
Personal Weather Stations






























Interactive Weather Map New forecast layout! Learn more

10-Day Weather Forecast

Advertisements
Track Severe Weather on mobile